»·PEaware :: SKY265 KABQ-KSKX

SKY265 :: KABQ-KSKX

FLIGHT INFORMATION

Flight Status: Arrived
Operator:
Sky High Charters
More flights by this operator :: More flights under this callsign
Pilot: Julian C. (16982)
Aircraft: Unknown
(SF50)
More flights by this aircraft type
Origin: KABQ Albuquerque Intl Sunport
United States
Destination: KSKX Taos Regl
United States
More flights between these airports :: More routes between these airports
Route: ABQ V263 SAF V83 TAS
File this flight plan on PilotEdge
Remarks: Sky High Scenario 2
Altitude:
(Current/Filed)
11,000ft
Speed:
(Current/Filed)
250kts
Departed: 01-Dec-19 10:13 AM
Arrived: 01-Dec-19 10:55 AM
Distance/Time
Traveled:
97nm/0:42
Distance/Time
To Go:
Arrived

Flight Plot

Page will automatically refresh every two minutes.

Flight plan parsing failed; only flown route is shown


Map Options




Map Legend


Flown Route
Filed Route
Departure Airport
Arrival Airport
Navaid (VOR, NDB)
Fix

Horizontal Profiles

Position Reports

Time Latitude Longitude Heading Altitude Ground
Speed
01-Dec-19 09:54 35.047002 -106.616363 11 5309ft 0kts
01-Dec-19 09:55 35.047002 -106.616363 11 5309ft 0kts
01-Dec-19 09:56 35.047002 -106.616363 11 5309ft 0kts
01-Dec-19 09:57 35.047002 -106.616363 11 5309ft 0kts
01-Dec-19 09:58 35.047002 -106.616363 11 5309ft 0kts
01-Dec-19 09:59 35.047002 -106.616363 11 5309ft 0kts
01-Dec-19 10:00 35.047002 -106.616363 11 5309ft 0kts
01-Dec-19 10:01 35.047002 -106.616363 11 5309ft 0kts
01-Dec-19 10:02 35.047002 -106.616363 11 5309ft 0kts
01-Dec-19 10:03 35.047002 -106.616363 11 5309ft 0kts
01-Dec-19 10:04 35.047081 -106.616436 289 5309ft 7kts
01-Dec-19 10:05 35.045568 -106.618027 269 5310ft 9kts
01-Dec-19 10:06 35.045188 -106.621396 183 5298ft 0kts
01-Dec-19 10:07 35.045188 -106.621396 183 5298ft 0kts
01-Dec-19 10:08 35.045188 -106.621396 183 5298ft 0kts
01-Dec-19 10:09 35.045188 -106.621396 183 5298ft 0kts
01-Dec-19 10:10 35.045188 -106.621396 183 5298ft 0kts
01-Dec-19 10:11 35.044493 -106.621205 139 5299ft 6kts
01-Dec-19 10:12 35.044245 -106.606238 85 5476ft 104kts
01-Dec-19 10:13 35.063986 -106.580399 330 7131ft 137kts
01-Dec-19 10:14 35.090458 -106.609285 315 8979ft 132kts
01-Dec-19 10:15 35.122642 -106.645374 318 8991ft 177kts
01-Dec-19 10:16 35.161680 -106.688534 318 9142ft 192kts
01-Dec-19 10:17 35.200902 -106.730979 318 9622ft 185kts
01-Dec-19 10:18 35.247918 -106.731651 9 10918ft 187kts
01-Dec-19 10:19 35.308291 -106.704679 14 10984ft 257kts
01-Dec-19 10:20 35.375800 -106.676016 14 10983ft 256kts
01-Dec-19 10:21 35.442971 -106.647627 13 10980ft 255kts
01-Dec-19 10:22 35.509184 -106.616734 37 11020ft 265kts
01-Dec-19 10:23 35.526497 -106.526465 83 11024ft 285kts
01-Dec-19 10:24 35.529756 -106.426011 83 11144ft 299kts
01-Dec-19 10:25 35.532595 -106.332277 82 10976ft 251kts
01-Dec-19 10:26 35.535481 -106.240382 83 10976ft 287kts
01-Dec-19 10:27 35.538523 -106.139748 83 11230ft 299kts
01-Dec-19 10:28 35.576437 -106.068067 17 10998ft 244kts
01-Dec-19 10:29 35.632604 -106.052305 3 10974ft 210kts
01-Dec-19 10:30 35.693438 -106.046969 1 10915ft 232kts
01-Dec-19 10:31 35.762462 -106.036818 5 10960ft 261kts
01-Dec-19 10:32 35.832348 -106.022330 3 10958ft 250kts
01-Dec-19 10:33 35.900626 -106.012040 3 10955ft 249kts
01-Dec-19 10:34 35.970990 -106.001599 3 10971ft 260kts
01-Dec-19 10:35 36.042649 -105.990963 3 11015ft 260kts
01-Dec-19 10:36 36.114690 -105.980251 3 11091ft 258kts
01-Dec-19 10:37 36.185963 -105.969657 3 10978ft 257kts
01-Dec-19 10:38 36.256902 -105.959088 3 11010ft 259kts
01-Dec-19 10:39 36.327419 -105.948551 3 10991ft 252kts
01-Dec-19 10:40 36.390339 -105.939146 1 11992ft 222kts
01-Dec-19 10:41 36.453651 -105.929671 1 11992ft 235kts
01-Dec-19 10:42 36.519574 -105.919780 1 11991ft 241kts
01-Dec-19 10:43 36.584857 -105.909787 0 11988ft 224kts
01-Dec-19 10:44 36.633600 -105.932113 305 11991ft 199kts
01-Dec-19 10:46 36.664895 -105.989829 305 11990ft 202kts
01-Dec-19 10:47 36.646905 -106.041740 177 11997ft 259kts
01-Dec-19 10:48 36.617763 -105.967109 91 11991ft 265kts
01-Dec-19 10:49 36.594085 -105.880981 132 11993ft 274kts
01-Dec-19 10:50 36.547353 -105.810476 127 10773ft 230kts
01-Dec-19 10:51 36.511519 -105.754658 126 9568ft 180kts
01-Dec-19 10:52 36.485529 -105.714592 126 8763ft 125kts
01-Dec-19 10:53 36.461583 -105.696905 220 8007ft 127kts
01-Dec-19 10:54 36.449197 -105.688640 50 7499ft 104kts
01-Dec-19 10:55 36.457843 -105.673114 255 7092ft 5kts
01-Dec-19 10:56 36.459909 -105.671368 269 7092ft 5kts
01-Dec-19 10:57 36.459890 -105.671455 241 7092ft 0kts
01-Dec-19 10:58 36.459890 -105.671455 241 7092ft 0kts
01-Dec-19 10:59 36.459890 -105.671455 241 7092ft 0kts
01-Dec-19 11:00 36.459890 -105.671455 241 7092ft 0kts
01-Dec-19 11:01 36.459890 -105.671455 241 7092ft 0kts
01-Dec-19 11:02 36.459890 -105.671455 241 7092ft 0kts
01-Dec-19 11:03 36.459890 -105.671455 241 7092ft 0kts
01-Dec-19 11:04 36.459890 -105.671455 241 7092ft 0kts
01-Dec-19 11:04 36.459890 -105.671455 241 7092ft 0kts
01-Dec-19 11:05 36.459890 -105.671455 241 7092ft 0kts
01-Dec-19 11:07 36.459890 -105.671455 241 7092ft 0kts
01-Dec-19 11:08 36.459890 -105.671455 241 7092ft 0kts
01-Dec-19 11:08 36.459890 -105.671455 241 7092ft 0kts
01-Dec-19 11:09 36.459890 -105.671455 241 7092ft 0kts

Navigation Log

Ident Type
Flight plan parsing failed, navigation log unavailable